Time;durP1;ratioP1;P1;durP2;ratioP2;P2;SDS_P1;SDS_P2;PMS_P1;PMS_P2;Temp;Humidity;BMP_temperature;BMP_pressure;BME280_temperature;BME280_humidity;BME280_pressure;Samples;Min_cycle;Max_cycle;Signal;HPM_P1;HPM_P2
2023/01/16 05:30:01;;;;;;;66.45;59.75;;;;;;;-2.70;100.00;100904.56;4859176;27;20395;-80
2023/01/16 05:35:53;;;;;;;66.13;59.63;;;;;;;-2.95;100.00;100905.56;5048041;28;20181;-83
2023/01/16 05:38:28;;;;;;;68.82;61.97;;;;;;;-2.79;100.00;100911.28;5048140;28;20080;-83
2023/01/16 05:40:55;;;;;;;68.35;61.78;;;;;;;-2.56;100.00;100915.56;5048396;28;20099;-83
2023/01/16 05:43:29;;;;;;;73.22;66.38;;;;;;;-2.78;100.00;100907.75;5049130;28;20052;-83
2023/01/16 05:45:59;;;;;;;81.97;73.50;;;;;;;-2.70;100.00;100901.97;5049060;28;20056;-83
2023/01/16 05:48:37;;;;;;;70.28;63.17;;;;;;;-2.66;100.00;100900.78;5047549;28;20056;-83
2023/01/16 05:54:15;;;;;;;75.32;67.32;;;;;;;-2.96;100.00;100899.56;5045111;28;20049;-82
2023/01/16 06:02:24;;;;;;;78.72;70.47;;;;;;;-3.00;100.00;100906.72;5090413;27;20393;-80
2023/01/16 06:04:51;;;;;;;110.97;86.53;;;;;;;-2.92;100.00;100898.38;5078663;28;20052;-80
2023/01/16 06:07:18;;;;;;;111.32;88.40;;;;;;;-3.07;100.00;100902.94;5061048;28;20053;-80
2023/01/16 06:26:59;;;;;;;85.15;74.15;;;;;;;-2.39;100.00;100892.66;5059696;27;20395;-80
2023/01/16 07:31:08;;;;;;;95.43;87.63;;;;;;;1.01;100.00;100829.25;5168034;27;20416;-81
2023/01/16 07:33:35;;;;;;;98.60;90.97;;;;;;;1.42;100.00;100829.81;5148775;27;20461;-80
2023/01/16 07:36:02;;;;;;;96.95;89.10;;;;;;;1.43;100.00;100828.84;5151276;27;20060;-81
2023/01/16 07:38:28;;;;;;;99.05;91.38;;;;;;;1.95;100.00;100814.25;5147253;27;20039;-81
2023/01/16 07:40:55;;;;;;;93.30;86.03;;;;;;;2.18;100.00;100805.94;5149670;27;20047;-81
2023/01/16 07:43:22;;;;;;;86.63;79.90;;;;;;;2.46;100.00;100807.53;5156916;27;20051;-81
2023/01/16 07:45:52;;;;;;;88.20;80.80;;;;;;;3.15;100.00;100807.72;5157780;27;20107;-81
2023/01/16 07:48:20;;;;;;;85.30;78.30;;;;;;;3.14;100.00;100804.25;5160254;27;20439;-81
2023/01/16 07:50:52;;;;;;;78.30;71.80;;;;;;;3.14;100.00;100801.63;5159036;27;20126;-82
2023/01/16 07:53:22;;;;;;;77.78;70.90;;;;;;;3.16;100.00;100802.31;5155628;27;20127;-81
2023/01/16 07:55:49;;;;;;;82.43;75.68;;;;;;;3.80;100.00;100791.41;5157597;27;20051;-81
2023/01/16 07:58:16;;;;;;;84.38;77.38;;;;;;;3.84;100.00;100780.44;5157689;27;20067;-81
2023/01/16 08:00:43;;;;;;;85.38;77.97;;;;;;;4.33;100.00;100772.63;5155817;27;20042;-81
2023/01/16 08:03:10;;;;;;;86.78;79.40;;;;;;;4.79;100.00;100758.97;5159609;27;20096;-81
2023/01/16 08:05:38;;;;;;;90.88;83.35;;;;;;;5.96;100.00;100758.19;5150403;27;20043;-82
2023/01/16 08:08:05;;;;;;;83.40;75.95;;;;;;;5.27;100.00;100750.09;5155094;27;20050;-81
2023/01/16 08:10:32;;;;;;;85.03;76.13;;;;;;;5.95;100.00;100755.72;5163869;27;20049;-82
2023/01/16 08:12:58;;;;;;;79.03;71.95;;;;;;;6.41;100.00;100738.09;5164305;27;20050;-82
2023/01/16 08:15:25;;;;;;;78.30;71.75;;;;;;;6.28;100.00;100743.13;5165435;27;20054;-82
2023/01/16 08:17:52;;;;;;;81.03;74.13;;;;;;;6.53;100.00;100730.53;5164000;27;20046;-82
2023/01/16 08:20:19;;;;;;;70.63;65.13;;;;;;;6.57;100.00;100731.84;5164560;27;20043;-82
2023/01/16 08:22:50;;;;;;;76.30;69.82;;;;;;;7.29;100.00;100725.13;5153640;27;20052;-82
2023/01/16 08:25:18;;;;;;;71.95;66.30;;;;;;;7.17;100.00;100735.34;5136352;28;20052;-82
2023/01/16 08:27:45;;;;;;;70.40;64.95;;;;;;;7.96;100.00;100726.72;5127703;28;20044;-82
2023/01/16 08:30:12;;;;;;;63.72;59.05;;;;;;;7.85;100.00;100724.56;5135495;28;20109;-82
2023/01/16 08:32:39;;;;;;;67.03;61.85;;;;;;;6.97;100.00;100728.97;5135765;28;20054;-82
2023/01/16 08:35:07;;;;;;;66.43;61.45;;;;;;;8.38;100.00;100725.03;5133467;28;20066;-82
2023/01/16 08:37:34;;;;;;;68.00;62.63;;;;;;;8.36;100.00;100717.31;5130058;28;20462;-82
2023/01/16 08:40:03;;;;;;;67.22;62.05;;;;;;;8.71;100.00;100720.03;5135846;28;20073;-82
2023/01/16 08:53:29;;;;;;;67.72;62.72;;;;;;;9.12;100.00;100714.78;5121860;28;20050;-82
2023/01/16 08:55:57;;;;;;;64.88;60.08;;;;;;;9.28;100.00;100731.34;5122646;28;20077;-82
2023/01/16 08:58:24;;;;;;;65.78;60.85;;;;;;;8.25;100.00;100729.22;5120702;28;20058;-82
2023/01/16 09:00:51;;;;;;;67.50;62.60;;;;;;;9.66;100.00;100712.34;5120080;28;20092;-82
2023/01/16 09:03:18;;;;;;;63.28;58.88;;;;;;;9.67;100.00;100720.09;5111348;28;20070;-82
2023/01/16 09:05:45;;;;;;;64.47;59.53;;;;;;;8.95;100.00;100714.25;5113218;28;20048;-82
2023/01/16 09:08:12;;;;;;;61.53;57.03;;;;;;;9.62;100.00;100707.44;5115608;27;20073;-82
2023/01/16 09:10:38;;;;;;;59.65;55.47;;;;;;;9.25;100.00;100706.06;5120281;28;20043;-82
2023/01/16 09:15:51;;;;;;;63.90;59.58;;;;;;;9.07;100.00;100700.47;5119880;28;20093;-82
2023/01/16 09:18:18;;;;;;;61.72;57.53;;;;;;;8.60;100.00;100696.75;5119960;28;20703;-82
2023/01/16 09:20:44;;;;;;;70.55;66.25;;;;;;;9.30;100.00;100706.28;5128423;28;20047;-82
2023/01/16 09:23:11;;;;;;;72.45;67.72;;;;;;;8.13;100.00;100703.47;5120414;28;20105;-82
2023/01/16 09:25:38;;;;;;;70.00;65.55;;;;;;;7.55;100.00;100704.31;5120898;28;20081;-82
2023/01/16 09:28:05;;;;;;;74.25;69.30;;;;;;;8.02;100.00;100692.38;5115595;28;20039;-82
2023/01/16 09:30:33;;;;;;;78.55;73.45;;;;;;;8.54;100.00;100676.34;5117886;28;20048;-82
2023/01/16 09:33:00;;;;;;;79.30;74.40;;;;;;;8.60;100.00;100670.28;5121044;28;20066;-82
2023/01/16 09:35:26;;;;;;;73.95;69.13;;;;;;;8.67;100.00;100682.53;5120385;28;20052;-82
2023/01/16 09:37:53;;;;;;;74.68;69.78;;;;;;;9.60;100.00;100684.78;5114663;28;20059;-82
2023/01/16 09:40:22;;;;;;;68.63;64.28;;;;;;;9.51;100.00;100662.94;5122294;28;20040;-82
2023/01/16 09:45:47;;;;;;;64.80;60.60;;;;;;;9.26;100.00;100653.88;5121948;28;20051;-82
2023/01/16 09:48:21;;;;;;;56.50;52.63;;;;;;;9.23;100.00;100648.97;5117977;27;20056;-82
2023/01/16 09:50:51;;;;;;;58.45;54.33;;;;;;;9.38;100.00;100639.88;5127679;28;20044;-82
2023/01/16 09:59:01;;;;;;;64.60;60.10;;;;;;;9.04;100.00;100630.16;5118341;27;20058;-82
2023/01/16 10:01:34;;;;;;;63.55;59.08;;;;;;;9.51;100.00;100627.66;5119006;28;20413;-82
2023/01/16 10:04:14;;;;;;;58.90;54.72;;;;;;;9.74;100.00;100625.47;5118453;28;20490;-82
2023/01/16 10:06:52;;;;;;;61.70;57.40;;;;;;;10.00;100.00;100611.38;5115855;28;20508;-82
2023/01/16 10:09:29;;;;;;;59.40;55.08;;;;;;;8.77;100.00;100617.81;5116021;28;20059;-82
2023/01/16 10:11:59;;;;;;;62.22;57.58;;;;;;;8.38;100.00;100613.88;5118282;28;20501;-82
2023/01/16 10:14:43;;;;;;;66.47;61.08;;;;;;;8.84;100.00;100611.53;5119157;28;20048;-82
2023/01/16 10:17:23;;;;;;;72.20;66.18;;;;;;;9.40;100.00;100608.66;5119166;28;20056;-82
2023/01/16 10:20:09;;;;;;;66.35;60.85;;;;;;;9.03;100.00;100604.69;5114735;28;20056;-82
2023/01/16 10:22:46;;;;;;;67.57;62.28;;;;;;;9.46;100.00;100595.63;5117789;28;20074;-82
2023/01/16 10:25:23;;;;;;;64.63;59.65;;;;;;;8.83;100.00;100585.22;5121354;28;20070;-82
2023/01/16 10:28:05;;;;;;;65.05;59.80;;;;;;;8.62;100.00;100579.06;5112621;28;20402;-82
2023/01/16 10:30:38;;;;;;;65.45;60.25;;;;;;;8.86;100.00;100569.75;5118537;28;20052;-82
2023/01/16 10:33:11;;;;;;;;;;;;;;;9.15;100.00;100555.41;5122645;28;20048;-82
2023/01/16 10:35:43;;;;;;;67.15;61.75;;;;;;;9.90;100.00;100563.22;5119992;28;19969;-82
2023/01/16 10:38:24;;;;;;;69.40;63.63;;;;;;;10.63;100.00;100562.28;5114003;28;20086;-82
2023/01/16 10:40:53;;;;;;;67.43;62.08;;;;;;;10.61;100.00;100557.19;5119247;28;20103;-83
2023/01/16 10:49:28;;;;;;;66.70;61.22;;;;;;;9.04;100.00;100561.25;5117783;28;20519;-82
2023/01/16 10:51:57;;;;;;;70.68;64.68;;;;;;;8.59;100.00;100558.22;5117995;28;20073;-82
2023/01/16 10:54:25;;;;;;;71.97;66.10;;;;;;;8.64;100.00;100562.97;5116716;28;20476;-82
2023/01/16 10:56:51;;;;;;;74.68;68.60;;;;;;;8.77;100.00;100560.34;5119068;27;20486;-82
2023/01/16 10:59:19;;;;;;;71.03;65.20;;;;;;;8.73;100.00;100542.44;5117055;28;20467;-83
2023/01/16 11:01:48;;;;;;;73.80;67.65;;;;;;;9.09;100.00;100534.19;5118845;28;20073;-83
2023/01/16 11:04:20;;;;;;;75.55;69.13;;;;;;;9.33;100.00;100515.06;5117816;28;20048;-82
2023/01/16 11:06:47;;;;;;;75.07;68.90;;;;;;;9.11;100.00;100513.63;5114035;28;20044;-83
2023/01/16 11:09:20;;;;;;;71.75;65.72;;;;;;;9.93;100.00;100520.38;5114313;28;20048;-83
2023/01/16 11:20:17;;;;;;;69.45;63.05;;;;;;;8.97;100.00;100504.00;5109198;28;20125;-83
2023/01/16 11:22:46;;;;;;;69.78;63.70;;;;;;;8.59;100.00;100507.94;5118919;28;20047;-82
2023/01/16 11:25:17;;;;;;;73.78;67.15;;;;;;;8.59;100.00;100513.22;5116059;28;20048;-82
2023/01/16 11:27:46;;;;;;;75.38;68.47;;;;;;;8.55;100.00;100496.13;5122483;28;20052;-83
2023/01/16 11:30:19;;;;;;;93.97;85.25;;;;;;;8.61;100.00;100500.63;5115371;28;20056;-82
2023/01/16 11:32:49;;;;;;;97.50;88.90;;;;;;;8.58;100.00;100486.97;5115887;28;20105;-83
2023/01/16 11:35:18;;;;;;;98.53;89.93;;;;;;;9.00;100.00;100493.81;5117159;28;20051;-82
2023/01/16 11:37:50;;;;;;;94.45;85.75;;;;;;;8.54;100.00;100481.25;5110174;28;20083;-83
2023/01/16 11:40:20;;;;;;;90.13;82.00;;;;;;;8.78;100.00;100477.25;5119812;28;20059;-83
2023/01/16 11:46:07;;;;;;;96.57;87.93;;;;;;;8.80;100.00;100461.16;5115800;28;20128;-83
2023/01/16 11:48:41;;;;;;;97.35;88.47;;;;;;;8.73;100.00;100457.69;5107420;28;20044;-82
2023/01/16 11:51:14;;;;;;;101.53;91.50;;;;;;;8.62;100.00;100441.38;5110366;28;20082;-83
2023/01/16 11:53:40;;;;;;;;;;;;;;;8.62;100.00;100449.31;5114877;28;20047;-82
2023/01/16 11:56:34;;;;;;;99.70;90.53;;;;;;;8.50;100.00;100448.25;5120178;28;19919;-83
2023/01/16 11:59:15;;;;;;;85.68;77.35;;;;;;;8.29;100.00;100438.59;5113964;28;20077;-83
2023/01/16 12:04:18;;;;;;;90.05;81.80;;;;;;;8.60;100.00;100434.66;5121694;27;20379;-84
2023/01/16 12:09:50;;;;;;;86.85;79.03;;;;;;;8.51;100.00;100431.38;5094993;27;20395;-81
2023/01/16 12:15:23;;;;;;;94.55;86.32;;;;;;;9.16;100.00;100432.47;5079265;28;20050;-81
2023/01/16 12:18:09;;;;;;;89.00;80.63;;;;;;;8.83;100.00;100427.13;5070295;28;20091;-84
2023/01/16 12:20:50;;;;;;;86.60;78.53;;;;;;;9.06;100.00;100413.53;5048824;28;20041;-82
2023/01/16 12:23:37;;;;;;;88.50;80.85;;;;;;;8.78;100.00;100423.50;5074390;28;20050;-81
2023/01/16 12:26:18;;;;;;;86.15;78.25;;;;;;;8.58;100.00;100418.94;5061382;28;20049;-82
2023/01/16 12:28:56;;;;;;;86.97;78.90;;;;;;;8.17;100.00;100414.53;5065041;28;20045;-84
2023/01/16 12:32:02;;;;;;;87.80;79.90;;;;;;;8.38;100.00;100420.69;5068668;28;20045;-83
2023/01/16 12:34:43;;;;;;;99.50;90.05;;;;;;;8.09;100.00;100422.63;5005888;28;20053;-84
2023/01/16 12:37:53;;;;;;;95.85;87.57;;;;;;;8.10;100.00;100426.06;5052347;28;20053;-84
2023/01/16 12:40:30;;;;;;;98.93;90.25;;;;;;;8.08;100.00;100414.88;5041734;28;20051;-83
2023/01/16 12:43:22;;;;;;;96.25;87.25;;;;;;;8.08;100.00;100413.06;5039757;28;20057;-83
2023/01/16 12:45:55;;;;;;;102.63;92.65;;;;;;;7.99;100.00;100408.94;5047834;28;20540;-82
2023/01/16 12:48:41;;;;;;;101.45;91.80;;;;;;;7.84;100.00;100403.78;5039652;28;20057;-83
2023/01/16 12:51:22;;;;;;;95.60;87.00;;;;;;;7.75;100.00;100412.88;5044119;28;20042;-84
2023/01/16 12:54:22;;;;;;;101.70;92.65;;;;;;;7.76;100.00;100401.28;5041005;28;20049;-84
2023/01/16 12:57:03;;;;;;;106.88;96.47;;;;;;;7.71;100.00;100401.88;5045980;28;20053;-84
2023/01/16 12:59:36;;;;;;;101.53;92.07;;;;;;;7.51;100.00;100388.53;5057548;28;20135;-83
2023/01/16 13:02:19;;;;;;;100.90;91.60;;;;;;;7.65;100.00;100394.72;5055555;28;20053;-84
2023/01/16 13:04:52;;;;;;;106.07;96.57;;;;;;;7.64;100.00;100392.28;5057069;28;20068;-84
2023/01/16 13:07:18;;;;;;;;;;;;;;;7.51;100.00;100380.63;5056104;28;20061;-82
2023/01/16 13:09:48;;;;;;;109.13;98.90;;;;;;;7.43;100.00;100382.59;5056795;28;19921;-83
2023/01/16 13:15:09;;;;;;;109.93;100.38;;;;;;;7.46;100.00;100382.19;5033716;28;20096;-83
2023/01/16 13:17:46;;;;;;;116.28;106.63;;;;;;;7.61;100.00;100374.16;5049363;28;20050;-82
2023/01/16 13:20:15;;;;;;;117.38;107.57;;;;;;;7.49;100.00;100372.06;5040334;28;20124;-83
2023/01/16 13:22:48;;;;;;;114.15;104.40;;;;;;;7.67;100.00;100381.31;5022032;28;20088;-83
2023/01/16 13:25:21;;;;;;;116.28;106.53;;;;;;;7.56;100.00;100382.66;5025815;28;20053;-83
2023/01/16 13:27:54;;;;;;;114.10;104.43;;;;;;;7.51;100.00;100380.63;5024547;28;20046;-81
2023/01/16 13:30:22;;;;;;;134.80;123.78;;;;;;;7.61;100.00;100374.97;5027773;28;20054;-81
2023/01/16 13:32:54;;;;;;;152.80;139.88;;;;;;;7.46;100.00;100376.91;5038700;28;20482;-84
2023/01/16 13:35:25;;;;;;;150.35;137.82;;;;;;;7.47;100.00;100375.91;5018843;28;20089;-83
2023/01/16 13:38:08;;;;;;;145.00;133.05;;;;;;;7.59;100.00;100376.97;5029219;28;20057;-84
2023/01/16 13:40:42;;;;;;;;;;;;;;;7.54;100.00;100369.66;5019764;28;20054;-84
2023/01/16 13:46:02;;;;;;;112.65;102.55;;;;;;;7.43;100.00;100351.69;5043692;28;20052;-82
2023/01/16 13:48:32;;;;;;;119.32;108.25;;;;;;;7.16;100.00;100348.06;5041494;28;20041;-82
2023/01/16 13:51:01;;;;;;;119.18;108.45;;;;;;;7.18;100.00;100343.41;5025067;28;20046;-82
2023/01/16 13:53:30;;;;;;;113.75;103.97;;;;;;;7.21;100.00;100334.28;5026368;28;20052;-82
2023/01/16 13:56:09;;;;;;;118.97;108.25;;;;;;;7.01;100.00;100342.06;5022435;28;20154;-83
2023/01/16 13:58:40;;;;;;;113.85;103.70;;;;;;;6.93;100.00;100353.59;5032079;28;20041;-83
2023/01/16 14:01:30;;;;;;;118.97;108.82;;;;;;;6.98;100.00;100358.28;5031936;28;20056;-83
2023/01/16 14:04:28;;;;;;;121.18;110.45;;;;;;;6.98;100.00;100353.00;5033020;28;20565;-83
2023/01/16 14:10:01;;;;;;;126.07;115.38;;;;;;;6.97;100.00;100346.91;5042113;28;20105;-82
2023/01/16 14:12:34;;;;;;;120.07;110.00;;;;;;;6.91;100.00;100345.03;5030262;28;20072;-83
2023/01/16 14:18:15;;;;;;;;;;;;;;;6.82;100.00;100348.81;5020783;28;20048;-81
2023/01/16 14:20:45;;;;;;;116.10;106.15;;;;;;;6.70;100.00;100340.59;5030772;28;19925;-82
2023/01/16 14:26:06;;;;;;;128.43;117.38;;;;;;;6.54;100.00;100327.66;5030437;28;20076;-83
2023/01/16 14:28:34;;;;;;;128.60;117.53;;;;;;;6.45;100.00;100331.44;5017441;28;20050;-83
2023/01/16 14:31:01;;;;;;;128.43;117.68;;;;;;;6.46;100.00;100318.03;5026414;28;20134;-84
2023/01/16 14:33:30;;;;;;;128.43;117.38;;;;;;;6.54;100.00;100332.94;5026549;28;20053;-83
2023/01/16 14:35:59;;;;;;;127.60;116.68;;;;;;;6.30;100.00;100323.56;5044058;28;20072;-82
2023/01/16 14:38:28;;;;;;;117.70;107.78;;;;;;;6.31;100.00;100309.38;5024092;28;20162;-83
2023/01/16 14:55:51;;;;;;;123.03;111.63;;;;;;;6.03;100.00;100322.47;5036090;28;20609;-83
2023/01/16 14:58:27;;;;;;;131.20;119.22;;;;;;;6.02;100.00;100321.66;5039304;28;20049;-83
2023/01/16 15:02:18;;;;;;;150.23;137.73;;;;;;;5.89;100.00;100310.91;5034773;28;20104;-84
2023/01/16 15:03:46;;;;;;;152.88;140.05;;;;;;;5.86;100.00;100306.81;5033448;28;20052;-84
2023/01/16 15:06:14;;;;;;;149.60;136.80;;;;;;;5.67;100.00;100310.84;5014858;28;20049;-83
2023/01/16 15:08:43;;;;;;;154.38;141.63;;;;;;;5.57;100.00;100297.16;5020756;28;20111;-83
2023/01/16 15:11:41;;;;;;;165.00;151.57;;;;;;;5.40;100.00;100285.16;5031102;28;20049;-83
2023/01/16 15:14:28;;;;;;;165.60;150.02;;;;;;;5.43;100.00;100280.34;5016213;28;20058;-83
2023/01/16 15:23:16;;;;;;;156.70;142.20;;;;;;;4.88;100.00;100267.63;5032489;28;20048;-83
2023/01/16 15:25:55;;;;;;;154.88;140.75;;;;;;;4.69;100.00;100272.41;5035709;28;20060;-83
2023/01/16 15:28:31;;;;;;;139.85;126.32;;;;;;;4.68;100.00;100259.41;5020189;28;20569;-81
2023/01/16 15:33:44;;;;;;;125.78;112.97;;;;;;;4.38;100.00;100258.53;5094490;27;20395;-81
2023/01/16 15:36:18;;;;;;;133.43;118.97;;;;;;;4.61;100.00;100258.50;5090992;28;20052;-81
2023/01/16 15:38:49;;;;;;;150.57;129.45;;;;;;;4.42;100.00;100250.13;5082014;28;20103;-81
2023/01/16 15:46:32;;;;;;;190.90;141.23;;;;;;;4.41;100.00;100253.72;5080478;28;20108;-82
2023/01/16 15:47:12;;;;;;;191.73;170.57;;;;;;;4.62;100.00;100270.66;5083097;28;20047;-81
2023/01/16 15:49:49;;;;;;;181.63;162.32;;;;;;;4.81;100.00;100264.88;5080823;28;20048;-81
2023/01/16 15:52:17;;;;;;;192.35;174.00;;;;;;;4.84;100.00;100254.00;5080404;28;20045;-81
2023/01/16 15:54:44;;;;;;;343.77;253.25;;;;;;;4.91;100.00;100248.84;5085604;28;20044;-80
2023/01/16 15:57:17;;;;;;;204.90;178.25;;;;;;;5.05;100.00;100248.00;5082524;28;20053;-81
2023/01/16 15:59:51;;;;;;;210.98;188.68;;;;;;;5.10;100.00;100232.50;5084657;28;20449;-81
2023/01/16 16:02:19;;;;;;;199.73;179.35;;;;;;;5.16;100.00;100241.50;5080372;28;20136;-82
2023/01/16 16:04:50;;;;;;;183.10;164.27;;;;;;;4.77;100.00;100239.94;5079140;28;20045;-82
2023/01/16 16:07:18;;;;;;;172.52;155.40;;;;;;;4.86;100.00;100245.94;5083952;28;20052;-81
2023/01/16 16:09:49;;;;;;;147.15;131.25;;;;;;;4.86;100.00;100238.84;5086224;28;20048;-81
2023/01/16 16:12:15;;;;;;;147.48;125.50;;;;;;;4.65;100.00;100238.72;5082012;28;20497;-81
2023/01/16 16:20:36;;;;;;;193.70;172.30;;;;;;;4.25;100.00;100231.00;5079248;28;20437;-81
2023/01/16 16:23:23;;;;;;;185.13;165.77;;;;;;;4.16;100.00;100224.19;5077059;28;20065;-82
2023/01/16 16:25:54;;;;;;;175.40;156.57;;;;;;;4.03;100.00;100230.03;5075726;28;20052;-81
2023/01/16 16:28:23;;;;;;;172.15;153.43;;;;;;;4.08;100.00;100218.97;5083045;28;20479;-81
2023/01/16 16:30:57;;;;;;;164.38;146.85;;;;;;;3.90;100.00;100216.63;5081340;28;20044;-81
2023/01/16 16:33:25;;;;;;;165.82;148.13;;;;;;;3.86;100.00;100223.25;5079867;28;20489;-81
2023/01/16 16:35:56;;;;;;;178.80;151.80;;;;;;;3.74;100.00;100222.81;5087831;28;20048;-81
2023/01/16 16:38:25;;;;;;;171.63;152.80;;;;;;;3.66;100.00;100215.81;5071752;28;20044;-81
2023/01/16 16:44:34;;;;;;;193.27;140.82;;;;;;;3.71;100.00;100219.72;5062406;28;20060;-81
2023/01/16 16:47:01;;;;;;;270.02;179.05;;;;;;;3.39;100.00;100224.97;5069074;28;20045;-81
2023/01/16 16:49:34;;;;;;;235.10;158.70;;;;;;;3.42;100.00;100208.88;5076697;28;20576;-81
2023/01/16 16:52:28;;;;;;;247.57;157.98;;;;;;;3.71;100.00;100217.91;5075299;28;20048;-81
2023/01/16 16:54:56;;;;;;;268.70;174.80;;;;;;;3.47;100.00;100194.41;5062411;28;20045;-81
2023/01/16 16:57:25;;;;;;;244.55;164.63;;;;;;;3.41;100.00;100195.91;5057619;28;20057;-81
2023/01/16 16:59:53;;;;;;;219.50;153.70;;;;;;;3.32;100.00;100196.94;5063643;28;20144;-81
2023/01/16 17:02:22;;;;;;;224.13;172.52;;;;;;;2.90;100.00;100203.31;5058543;28;20074;-81
2023/01/16 17:04:48;;;;;;;219.23;164.50;;;;;;;3.05;100.00;100203.44;5065962;28;20493;-81
2023/01/16 17:07:15;;;;;;;220.10;164.40;;;;;;;2.95;100.00;100201.03;5051975;28;20049;-81
2023/01/16 17:09:43;;;;;;;234.35;180.13;;;;;;;2.97;100.00;100199.06;5053371;28;20438;-81
2023/01/16 17:12:15;;;;;;;238.20;175.80;;;;;;;3.01;100.00;100189.84;5049048;28;20072;-81
2023/01/16 17:14:45;;;;;;;238.80;180.63;;;;;;;3.07;100.00;100202.28;5066139;28;20136;-81
2023/01/16 17:19:46;;;;;;;284.35;204.45;;;;;;;3.08;100.00;100214.41;5086532;27;20378;-81
2023/01/16 17:22:13;;;;;;;280.77;200.82;;;;;;;2.84;100.00;100215.31;5077898;28;20098;-81
2023/01/16 17:24:40;;;;;;;328.70;199.50;;;;;;;2.62;100.00;100223.88;5050865;28;20054;-81
2023/01/16 17:27:09;;;;;;;332.50;213.13;;;;;;;2.63;100.00;100213.25;5056847;28;20077;-81
2023/01/16 17:29:39;;;;;;;283.38;185.82;;;;;;;2.53;100.00;100207.34;5049233;28;20060;-81
2023/01/16 17:32:06;;;;;;;206.65;134.32;;;;;;;2.67;100.00;100200.59;5051762;28;20419;-81
2023/01/16 17:34:33;;;;;;;253.25;162.40;;;;;;;2.67;100.00;100197.97;5046447;28;20057;-81
2023/01/16 17:37:03;;;;;;;237.93;145.75;;;;;;;2.46;100.00;100203.75;5053005;28;20045;-81
2023/01/16 17:39:30;;;;;;;245.48;148.85;;;;;;;2.42;100.00;100198.03;5048469;28;20045;-81
2023/01/16 17:47:26;;;;;;;255.00;149.98;;;;;;;2.28;100.00;100189.00;5043997;28;20419;-81
2023/01/16 17:52:38;;;;;;;244.30;140.32;;;;;;;2.19;100.00;100178.69;5049555;28;20433;-81
2023/01/16 17:57:49;;;;;;;261.95;155.88;;;;;;;2.18;100.00;100180.50;5050638;28;20422;-81
2023/01/16 18:00:17;;;;;;;248.88;153.68;;;;;;;2.21;100.00;100174.09;5046791;28;20042;-81
2023/01/16 18:02:47;;;;;;;232.48;147.73;;;;;;;2.27;100.00;100174.28;5052074;28;20072;-81
2023/01/16 18:05:14;;;;;;;218.32;138.55;;;;;;;2.30;100.00;100160.03;5046664;28;20509;-81
2023/01/16 18:07:42;;;;;;;230.50;139.77;;;;;;;2.41;100.00;100149.19;5052188;28;20045;-81
2023/01/16 18:10:10;;;;;;;226.68;154.25;;;;;;;2.25;100.00;100134.31;5053745;28;20099;-81
2023/01/16 18:18:05;;;;;;;205.98;126.97;;;;;;;2.19;100.00;100128.91;5054235;28;20099;-81
2023/01/16 18:20:31;;;;;;;173.90;120.63;;;;;;;1.77;100.00;100127.28;5038964;28;20576;-81
2023/01/16 18:23:00;;;;;;;171.25;124.97;;;;;;;1.87;100.00;100140.22;5049863;28;20111;-80
2023/01/16 18:25:26;;;;;;;165.43;119.22;;;;;;;1.91;100.00;100138.94;5045895;28;20045;-81
2023/01/16 18:27:53;;;;;;;173.65;125.75;;;;;;;1.91;100.00;100125.84;5046508;28;20103;-81
2023/01/16 18:30:20;;;;;;;217.10;146.75;;;;;;;1.87;100.00;100124.50;5038339;28;20045;-81
2023/01/16 18:32:47;;;;;;;253.05;167.13;;;;;;;1.89;100.00;100107.66;5032404;28;20068;-81
2023/01/16 18:35:29;;;;;;;213.77;141.65;;;;;;;1.55;100.00;100108.63;5086663;27;20371;-80
2023/01/16 19:02:35;;;;;;;145.77;114.13;;;;;;;1.60;100.00;100095.03;5063557;28;20068;-81
2023/01/16 19:05:02;;;;;;;176.95;127.30;;;;;;;1.62;100.00;100081.78;5062524;28;20505;-81
2023/01/16 19:07:32;;;;;;;177.55;127.05;;;;;;;1.69;100.00;100099.28;5064610;28;20067;-81
2023/01/16 19:10:02;;;;;;;187.50;129.20;;;;;;;1.49;100.00;100087.53;5064420;28;20047;-82
2023/01/16 19:12:33;;;;;;;281.67;167.90;;;;;;;1.58;100.00;100086.53;5063702;28;20049;-81
2023/01/16 19:15:00;;;;;;;305.17;185.55;;;;;;;1.58;100.00;100082.13;5066358;28;20124;-82
2023/01/16 19:17:27;;;;;;;308.10;193.02;;;;;;;1.54;100.00;100082.59;5063438;28;20420;-81
2023/01/16 19:19:54;;;;;;;311.13;189.65;;;;;;;1.58;100.00;100084.75;5065754;28;20053;-81
2023/01/16 19:22:22;;;;;;;295.58;183.20;;;;;;;1.68;100.00;100073.28;5064491;28;20052;-81
2023/01/16 19:24:49;;;;;;;363.00;214.32;;;;;;;1.79;100.00;100073.78;5066047;28;20108;-81
2023/01/16 19:27:16;;;;;;;294.10;179.60;;;;;;;1.57;100.00;100072.63;5063567;28;20594;-81
2023/01/16 19:29:46;;;;;;;254.25;164.25;;;;;;;1.68;100.00;100070.66;5064342;28;20521;-81
2023/01/16 19:32:12;;;;;;;225.32;151.10;;;;;;;1.62;100.00;100055.63;5063117;28;20414;-81
2023/01/16 19:34:40;;;;;;;199.88;139.52;;;;;;;1.68;100.00;100060.19;5064940;28;20049;-82
2023/01/16 19:37:07;;;;;;;258.85;160.60;;;;;;;1.57;100.00;100056.09;5064564;28;20053;-81
2023/01/16 19:39:35;;;;;;;245.70;154.73;;;;;;;1.77;100.00;100052.16;5065606;28;20086;-81
2023/01/16 19:47:32;;;;;;;338.33;219.40;;;;;;;1.66;100.00;100065.59;5066130;28;20087;-81
2023/01/16 19:49:58;;;;;;;338.75;209.98;;;;;;;1.62;100.00;100073.94;5063077;28;20048;-81
2023/01/16 19:52:26;;;;;;;315.15;197.82;;;;;;;1.52;100.00;100064.44;5064998;28;20052;-81
2023/01/16 19:54:53;;;;;;;342.70;215.68;;;;;;;1.53;100.00;100060.03;5062860;28;20806;-81
2023/01/16 19:57:19;;;;;;;344.45;212.82;;;;;;;1.60;100.00;100053.16;5065690;28;20109;-82
2023/01/16 19:59:49;;;;;;;323.90;206.00;;;;;;;1.61;100.00;100057.41;5062648;28;20128;-80
2023/01/16 20:02:17;;;;;;;329.70;203.98;;;;;;;1.52;100.00;100063.63;5070156;28;20099;-82
2023/01/16 20:04:44;;;;;;;336.45;207.05;;;;;;;1.50;100.00;100045.47;5073341;28;20112;-82
2023/01/16 20:07:12;;;;;;;361.55;221.80;;;;;;;1.57;100.00;100046.47;5062658;28;20049;-81
2023/01/16 20:09:41;;;;;;;397.40;228.07;;;;;;;1.63;100.00;100036.31;5056386;28;20476;-81
2023/01/16 20:12:26;;;;;;;362.58;214.07;;;;;;;1.72;100.00;100038.75;5060430;28;20801;-81
2023/01/16 20:14:57;;;;;;;368.75;250.82;;;;;;;1.71;100.00;100044.97;5062904;28;20055;-81
2023/01/16 20:17:24;;;;;;;331.08;221.02;;;;;;;1.76;100.00;100044.50;5057419;28;20041;-81
2023/01/16 20:19:51;;;;;;;348.02;227.18;;;;;;;1.87;100.00;100036.28;5061671;28;20111;-81
2023/01/16 20:22:19;;;;;;;301.60;221.27;;;;;;;1.84;100.00;100032.19;5051326;28;20140;-81
2023/01/16 20:24:48;;;;;;;299.48;218.13;;;;;;;1.63;100.00;100031.06;5053410;28;20037;-80
2023/01/16 20:27:16;;;;;;;271.15;206.43;;;;;;;1.81;100.00;100032.50;5055360;28;20052;-81
2023/01/16 20:29:44;;;;;;;262.17;199.98;;;;;;;1.87;100.00;100033.66;5051659;28;20045;-81
2023/01/16 20:32:12;;;;;;;239.88;162.18;;;;;;;1.92;100.00;100033.16;5061615;28;20175;-81
2023/01/16 20:34:41;;;;;;;244.07;161.75;;;;;;;1.91;100.00;100040.22;5065120;28;20606;-82
2023/01/16 20:37:18;;;;;;;226.40;151.90;;;;;;;1.85;100.00;100038.25;5062595;28;20041;-80
2023/01/16 20:39:54;;;;;;;289.17;181.13;;;;;;;1.74;100.00;100026.31;5061979;28;20049;-81
2023/01/16 20:47:52;;;;;;;399.95;238.63;;;;;;;1.76;100.00;100028.78;5064828;28;20052;-81
2023/01/16 20:50:19;;;;;;;414.55;254.02;;;;;;;1.82;100.00;100031.56;5066125;28;20075;-81
2023/01/16 20:52:47;;;;;;;385.73;233.88;;;;;;;1.88;100.00;100024.03;5065416;28;20049;-81
2023/01/16 20:55:14;;;;;;;394.00;244.48;;;;;;;1.83;100.00;100027.94;5065900;28;20418;-82